createdAt,value
2023-05-20T00:00:57.453Z,10.96
2023-05-20T00:04:14.705Z,10.89
2023-05-20T00:07:32.162Z,10.87
2023-05-20T00:10:49.596Z,10.92
2023-05-20T00:14:06.468Z,10.90
2023-05-20T00:17:23.276Z,10.89
2023-05-20T00:20:40.917Z,10.91
2023-05-20T00:23:59.510Z,10.93
2023-05-20T00:27:16.354Z,10.99
2023-05-20T00:30:33.176Z,10.94
2023-05-20T00:33:50.252Z,10.90
2023-05-20T00:37:07.261Z,10.89
2023-05-20T00:40:26.237Z,10.90
2023-05-20T00:43:43.065Z,10.87
2023-05-20T00:47:01.096Z,10.85
2023-05-20T00:50:20.454Z,10.83
2023-05-20T00:53:37.160Z,10.84
2023-05-20T00:56:53.959Z,10.81
2023-05-20T01:00:15.004Z,10.77
2023-05-20T01:03:32.211Z,10.77
2023-05-20T01:06:49.155Z,10.77
2023-05-20T01:10:06.649Z,10.78
2023-05-20T01:13:28.563Z,10.73
2023-05-20T01:16:46.383Z,10.74
2023-05-20T01:20:08.725Z,10.74
2023-05-20T01:23:25.293Z,10.73
2023-05-20T01:26:41.923Z,10.67
2023-05-20T01:30:01.131Z,10.70
2023-05-20T01:33:21.899Z,10.67
2023-05-20T01:36:42.482Z,10.68
2023-05-20T01:40:01.940Z,10.72
2023-05-20T01:43:19.484Z,10.68
2023-05-20T01:46:40.195Z,10.68
2023-05-20T01:49:57.069Z,10.67
2023-05-20T01:53:14.367Z,10.64
2023-05-20T01:56:31.051Z,10.62
2023-05-20T01:59:48.413Z,10.63
2023-05-20T02:03:05.102Z,10.65
2023-05-20T02:06:22.597Z,10.62
2023-05-20T02:09:39.299Z,10.61
2023-05-20T02:12:56.726Z,10.63
2023-05-20T02:16:14.584Z,10.63
2023-05-20T02:19:32.225Z,10.62
2023-05-20T02:22:49.556Z,10.64
2023-05-20T02:26:06.400Z,10.65
2023-05-20T02:29:25.844Z,10.66
2023-05-20T02:32:43.368Z,10.59
2023-05-20T02:36:00.819Z,10.62
2023-05-20T02:39:20.281Z,10.61
2023-05-20T02:42:36.857Z,10.65
2023-05-20T02:45:53.760Z,10.63
2023-05-20T02:49:10.713Z,10.65
2023-05-20T02:52:28.720Z,10.63
2023-05-20T02:55:48.248Z,10.66
2023-05-20T02:59:05.772Z,10.63
2023-05-20T03:02:24.278Z,10.60
2023-05-20T03:05:43.528Z,10.61
2023-05-20T03:09:00.223Z,10.63
2023-05-20T03:12:17.305Z,10.64
2023-05-20T03:15:34.267Z,10.65
2023-05-20T03:18:51.419Z,10.65
2023-05-20T03:22:08.641Z,10.63
2023-05-20T03:25:25.763Z,10.69
2023-05-20T03:28:42.615Z,10.69
2023-05-20T03:32:01.932Z,10.69
2023-05-20T03:35:20.042Z,10.72
2023-05-20T03:38:38.335Z,10.72
2023-05-20T03:41:55.006Z,10.75
2023-05-20T03:45:12.797Z,10.79
2023-05-20T03:48:33.986Z,10.73
2023-05-20T03:51:50.494Z,10.77
2023-05-20T03:55:07.614Z,10.77
2023-05-20T03:58:26.186Z,10.71
2023-05-20T04:01:42.811Z,10.73
2023-05-20T04:05:03.351Z,10.74
2023-05-20T04:08:20.790Z,10.75
2023-05-20T04:11:37.914Z,10.79
2023-05-20T04:14:56.489Z,10.81
2023-05-20T04:18:14.203Z,10.80
2023-05-20T04:21:31.097Z,10.81
2023-05-20T04:24:48.822Z,10.80
2023-05-20T04:28:06.025Z,10.86
2023-05-20T04:31:26.343Z,10.86
2023-05-20T04:34:43.965Z,10.89
2023-05-20T04:38:01.886Z,10.88
2023-05-20T04:41:19.520Z,10.90
2023-05-20T04:44:39.485Z,10.93
2023-05-20T04:47:57.803Z,10.97
2023-05-20T04:51:14.719Z,10.98
2023-05-20T04:54:33.790Z,10.97
2023-05-20T04:57:50.791Z,10.96
2023-05-20T05:01:07.489Z,11.04
2023-05-20T05:04:24.714Z,11.03
2023-05-20T05:07:41.566Z,11.03
2023-05-20T05:11:00.631Z,11.08
2023-05-20T05:14:17.816Z,11.03
2023-05-20T05:17:34.587Z,11.03
2023-05-20T05:20:53.707Z,11.12
2023-05-20T05:24:10.638Z,11.14
2023-05-20T05:27:27.243Z,11.17
2023-05-20T05:30:44.573Z,11.24
2023-05-20T05:34:04.184Z,11.24
2023-05-20T05:37:21.031Z,11.30
2023-05-20T05:40:41.233Z,11.34
2023-05-20T05:43:58.209Z,11.35
2023-05-20T05:47:18.465Z,11.35
2023-05-20T05:50:36.931Z,11.34
2023-05-20T05:53:54.381Z,11.39
2023-05-20T05:57:13.918Z,11.38
2023-05-20T06:00:30.767Z,11.42
2023-05-20T06:03:47.483Z,11.49
2023-05-20T06:07:07.371Z,11.52
2023-05-20T06:10:25.152Z,11.58
2023-05-20T06:13:41.993Z,11.62
2023-05-20T06:16:59.189Z,11.64
2023-05-20T06:20:18.847Z,11.65
2023-05-20T06:23:35.820Z,11.70
2023-05-20T06:26:55.800Z,11.71
2023-05-20T06:30:20.603Z,11.73
2023-05-20T06:33:53.457Z,11.72
2023-05-20T06:37:17.182Z,11.77
2023-05-20T06:40:34.972Z,11.81
2023-05-20T06:43:53.494Z,11.83
2023-05-20T06:47:20.160Z,11.83
2023-05-20T06:50:38.350Z,11.92
2023-05-20T06:53:55.296Z,11.92
2023-05-20T06:57:12.720Z,11.98
2023-05-20T07:00:30.726Z,12.07
2023-05-20T07:03:50.012Z,12.17
2023-05-20T07:07:07.923Z,12.23
2023-05-20T07:10:26.603Z,12.25
2023-05-20T07:13:43.671Z,12.29
2023-05-20T07:17:07.109Z,12.32
2023-05-20T07:20:28.903Z,12.37
2023-05-20T07:23:49.947Z,12.42
2023-05-20T07:27:07.071Z,12.44
2023-05-20T07:30:24.490Z,12.58
2023-05-20T07:33:43.357Z,12.61
2023-05-20T07:37:00.810Z,12.71
2023-05-20T07:40:21.857Z,12.72
2023-05-20T07:43:39.456Z,12.76
2023-05-20T07:46:56.432Z,12.84
2023-05-20T07:50:15.368Z,12.91
2023-05-20T07:53:32.721Z,12.99
2023-05-20T07:56:49.361Z,13.05
2023-05-20T08:00:07.325Z,13.10
2023-05-20T08:03:27.783Z,13.10
2023-05-20T08:06:49.122Z,13.14
2023-05-20T08:10:09.977Z,13.18
2023-05-20T08:13:32.478Z,13.21
2023-05-20T08:16:54.809Z,13.32
2023-05-20T08:20:13.861Z,13.37
2023-05-20T08:23:31.705Z,13.43
2023-05-20T08:26:49.570Z,13.50
2023-05-20T08:30:09.127Z,13.53
2023-05-20T08:33:28.209Z,13.52
2023-05-20T08:36:46.183Z,13.58
2023-05-20T08:40:11.897Z,13.64
2023-05-20T08:43:40.032Z,13.66
2023-05-20T08:47:01.909Z,13.71
2023-05-20T08:50:23.108Z,13.75
2023-05-20T08:53:40.571Z,13.74
2023-05-20T08:57:03.990Z,13.71
2023-05-20T09:00:26.487Z,13.82
2023-05-20T09:03:44.316Z,13.88
2023-05-20T09:07:01.416Z,13.93
2023-05-20T09:10:22.035Z,13.95
2023-05-20T09:13:40.596Z,14.05
2023-05-20T09:16:58.999Z,14.15
2023-05-20T09:20:20.753Z,14.18
2023-05-20T09:23:42.531Z,14.20
2023-05-20T09:26:59.681Z,14.31
2023-05-20T09:30:20.837Z,14.36
2023-05-20T09:33:40.064Z,14.39
2023-05-20T09:36:56.478Z,14.51
2023-05-20T09:40:18.502Z,14.55
2023-05-20T09:43:36.020Z,14.71
2023-05-20T09:46:55.732Z,14.82
2023-05-20T09:50:17.226Z,14.88
2023-05-20T09:53:35.740Z,15.02
2023-05-20T09:56:54.303Z,14.97
2023-05-20T10:00:14.730Z,14.98
2023-05-20T10:03:36.902Z,15.09
2023-05-20T10:07:15.395Z,15.16
2023-05-20T10:10:42.065Z,15.25
2023-05-20T10:14:34.663Z,15.28
2023-05-20T10:17:57.245Z,15.37
2023-05-20T10:21:23.297Z,15.40
2023-05-20T10:24:46.533Z,15.45
2023-05-20T10:28:15.204Z,15.42
2023-05-20T10:31:36.212Z,15.58
2023-05-20T10:34:58.346Z,15.69
2023-05-20T10:38:21.784Z,15.83
2023-05-20T10:41:39.008Z,15.91
2023-05-20T10:44:56.148Z,15.97
2023-05-20T10:48:13.591Z,16.09
2023-05-20T10:51:32.808Z,16.15
2023-05-20T10:54:52.676Z,16.16
2023-05-20T10:58:09.933Z,16.23
2023-05-20T11:01:29.907Z,16.32
2023-05-20T11:04:47.590Z,16.50
2023-05-20T11:08:27.183Z,16.57
2023-05-20T11:11:31.313Z,16.63
2023-05-20T11:14:48.468Z,16.65
2023-05-20T11:18:08.321Z,16.70
2023-05-20T11:21:26.442Z,16.76
2023-05-20T11:24:43.485Z,16.92
2023-05-20T11:28:00.505Z,16.99
2023-05-20T11:31:18.855Z,17.17
2023-05-20T11:34:40.886Z,17.28
2023-05-20T11:38:04.487Z,17.29
2023-05-20T11:41:22.285Z,17.23
2023-05-20T11:44:39.389Z,17.26
2023-05-20T11:48:08.037Z,17.29
2023-05-20T11:51:24.766Z,17.45
2023-05-20T11:54:45.096Z,17.55
2023-05-20T11:58:04.608Z,17.57
2023-05-20T12:01:23.500Z,17.61
2023-05-20T12:04:41.823Z,17.69
2023-05-20T12:07:58.669Z,17.72
2023-05-20T12:11:15.621Z,17.77
2023-05-20T12:14:32.379Z,17.86
2023-05-20T12:17:57.444Z,17.88
2023-05-20T12:21:14.228Z,18.01
2023-05-20T12:24:31.004Z,17.95
2023-05-20T12:27:49.122Z,18.04
2023-05-20T12:31:05.857Z,18.08
2023-05-20T12:34:22.715Z,18.22
2023-05-20T12:37:39.845Z,18.39
2023-05-20T12:40:56.531Z,18.41
2023-05-20T12:44:14.161Z,18.51
2023-05-20T12:47:31.551Z,18.48
2023-05-20T12:50:48.338Z,18.56
2023-05-20T12:54:05.470Z,18.61
2023-05-20T12:57:22.531Z,18.71
2023-05-20T13:00:39.431Z,18.78
2023-05-20T13:03:56.749Z,18.85
2023-05-20T13:07:13.789Z,18.93
2023-05-20T13:10:30.759Z,18.99
2023-05-20T13:13:47.415Z,18.99
2023-05-20T13:17:04.349Z,19.00
2023-05-20T13:20:22.598Z,19.10
2023-05-20T13:23:39.366Z,19.15
2023-05-20T13:26:56.016Z,19.20
2023-05-20T13:30:14.677Z,19.26
2023-05-20T13:33:31.534Z,19.32
2023-05-20T13:36:48.811Z,19.40
2023-05-20T13:40:05.680Z,19.44
2023-05-20T13:43:22.570Z,19.53
2023-05-20T13:46:39.314Z,19.61
2023-05-20T13:49:56.074Z,19.65
2023-05-20T13:53:14.613Z,19.67
2023-05-20T13:56:31.306Z,19.76
2023-05-20T13:59:48.003Z,19.82
2023-05-20T14:03:05.812Z,19.84
2023-05-20T14:06:22.879Z,19.84
2023-05-20T14:09:39.529Z,19.95
2023-05-20T14:12:56.458Z,19.96
2023-05-20T14:16:13.915Z,20.01
2023-05-20T14:19:30.722Z,20.07
2023-05-20T14:22:47.395Z,20.08
2023-05-20T14:26:04.284Z,20.08
2023-05-20T14:29:20.914Z,20.16
2023-05-20T14:32:38.123Z,20.19
2023-05-20T14:35:55.275Z,20.28
2023-05-20T14:39:13.246Z,20.34
2023-05-20T14:42:30.126Z,20.39
2023-05-20T14:45:47.581Z,20.43
2023-05-20T14:49:04.481Z,20.48
2023-05-20T14:52:21.394Z,20.57
2023-05-20T14:55:38.276Z,20.59
2023-05-20T14:58:55.705Z,20.63
2023-05-20T15:02:15.439Z,20.63
2023-05-20T15:05:31.882Z,20.69
2023-05-20T15:08:48.761Z,20.74
2023-05-20T15:12:05.467Z,20.75
2023-05-20T15:15:22.694Z,20.79
2023-05-20T15:18:40.307Z,20.82
2023-05-20T15:21:57.235Z,20.80
2023-05-20T15:25:15.258Z,20.85
2023-05-20T15:28:32.144Z,20.90
2023-05-20T15:34:52.040Z,20.95
2023-05-20T15:38:08.895Z,20.94
2023-05-20T15:41:26.971Z,20.99
2023-05-20T15:44:43.830Z,20.95
2023-05-20T15:48:00.931Z,20.95
2023-05-20T15:51:18.899Z,20.97
2023-05-20T15:54:35.753Z,20.96
2023-05-20T15:57:52.758Z,21.00
2023-05-20T16:01:09.674Z,21.04
2023-05-20T16:04:27.233Z,21.10
2023-05-20T16:07:44.324Z,21.06
2023-05-20T16:11:00.972Z,21.04
2023-05-20T16:14:17.790Z,21.05
2023-05-20T16:17:35.486Z,21.06
2023-05-20T16:20:52.255Z,21.05
2023-05-20T16:24:10.162Z,21.04
2023-05-20T16:27:26.918Z,21.04
2023-05-20T16:30:44.811Z,21.01
2023-05-20T16:34:02.031Z,20.96
2023-05-20T16:37:19.684Z,20.91
2023-05-20T16:40:36.685Z,20.87
2023-05-20T16:43:53.254Z,20.79
2023-05-20T16:47:10.096Z,20.77
2023-05-20T16:50:27.031Z,20.75
2023-05-20T16:53:44.206Z,20.70
2023-05-20T16:57:00.836Z,20.64
2023-05-20T17:00:21.916Z,20.59
2023-05-20T17:03:40.616Z,20.56
2023-05-20T17:06:57.801Z,20.49
2023-05-20T17:10:16.927Z,20.44
2023-05-20T17:13:33.645Z,20.40
2023-05-20T17:16:50.286Z,20.33
2023-05-20T17:20:07.288Z,20.27
2023-05-20T17:23:24.516Z,20.25
2023-05-20T17:26:41.966Z,20.18
2023-05-20T17:29:59.550Z,20.18
2023-05-20T17:33:16.211Z,20.10
2023-05-20T17:36:33.696Z,20.08
2023-05-20T17:39:52.146Z,20.07
2023-05-20T17:43:08.986Z,19.98
2023-05-20T17:46:25.698Z,19.93
2023-05-20T17:49:42.594Z,19.88
2023-05-20T17:52:59.261Z,19.83
2023-05-20T17:56:16.836Z,19.75
2023-05-20T17:59:34.815Z,19.74
2023-05-20T18:02:50.334Z,19.61
2023-05-20T18:06:07.543Z,19.55
2023-05-20T18:09:26.303Z,19.47
2023-05-20T18:12:43.657Z,19.38
2023-05-20T18:16:00.654Z,19.31
2023-05-20T18:19:17.645Z,19.22
2023-05-20T18:22:34.528Z,19.14
2023-05-20T18:25:51.644Z,19.05
2023-05-20T18:29:08.662Z,18.95
2023-05-20T18:32:27.835Z,18.87
2023-05-20T18:35:58.289Z,18.78
2023-05-20T18:39:16.611Z,18.64
2023-05-20T18:42:33.276Z,18.60
2023-05-20T18:45:50.085Z,18.53
2023-05-20T18:49:06.501Z,18.43
2023-05-20T18:52:23.209Z,18.32
2023-05-20T18:55:39.866Z,18.24
2023-05-20T18:58:56.589Z,18.17
2023-05-20T19:02:15.130Z,18.06
2023-05-20T19:05:32.322Z,18.01
2023-05-20T19:08:50.179Z,18.00
2023-05-20T19:12:07.688Z,17.95
2023-05-20T19:15:26.789Z,17.86
2023-05-20T19:18:43.457Z,17.82
2023-05-20T19:22:00.476Z,17.71
2023-05-20T19:25:18.120Z,17.66
2023-05-20T19:28:34.875Z,17.61
2023-05-20T19:31:54.844Z,17.58
2023-05-20T19:35:12.192Z,17.55
2023-05-20T19:38:28.707Z,17.52
2023-05-20T19:41:45.574Z,17.49
2023-05-20T19:45:02.737Z,17.44
2023-05-20T19:48:21.962Z,17.42
2023-05-20T19:51:38.183Z,17.37
2023-05-20T19:54:56.670Z,17.31
2023-05-20T19:58:13.235Z,17.33
2023-05-20T20:01:35.607Z,17.28
2023-05-20T20:04:53.192Z,17.25
2023-05-20T20:08:10.860Z,17.30
2023-05-20T20:11:29.059Z,17.30
2023-05-20T20:14:45.773Z,17.26
2023-05-20T20:18:02.163Z,17.18
2023-05-20T20:21:18.960Z,17.13
2023-05-20T20:24:36.097Z,17.04
2023-05-20T20:27:52.942Z,16.98
2023-05-20T20:31:10.053Z,16.95
2023-05-20T20:34:26.775Z,16.87
2023-05-20T20:37:45.795Z,16.77
2023-05-20T20:41:00.578Z,16.70
2023-05-20T20:44:21.882Z,16.62
2023-05-20T20:47:39.420Z,16.56
2023-05-20T20:50:57.375Z,16.51
2023-05-20T20:54:15.274Z,16.52
2023-05-20T20:57:35.229Z,16.40
2023-05-20T21:00:52.148Z,16.36
2023-05-20T21:04:10.393Z,16.30
2023-05-20T21:07:27.084Z,16.30
2023-05-20T21:10:43.954Z,16.28
2023-05-20T21:14:00.715Z,16.25
2023-05-20T21:17:17.875Z,16.22
2023-05-20T21:20:36.036Z,16.03
2023-05-20T21:23:55.107Z,15.82
2023-05-20T21:27:12.019Z,15.38
2023-05-20T21:30:28.635Z,15.28
2023-05-20T21:33:45.563Z,15.06
2023-05-20T21:37:02.309Z,15.00
2023-05-20T21:40:21.014Z,14.97
2023-05-20T21:43:38.435Z,15.04
2023-05-20T21:46:55.191Z,15.20
2023-05-20T21:50:14.687Z,15.24
2023-05-20T21:53:31.503Z,15.14
2023-05-20T21:56:48.059Z,15.01
2023-05-20T22:00:05.848Z,15.10
2023-05-20T22:03:22.965Z,15.17
2023-05-20T22:06:40.730Z,15.26
2023-05-20T22:09:58.066Z,15.32
2023-05-20T22:13:16.211Z,15.34
2023-05-20T22:16:32.816Z,15.40
2023-05-20T22:19:50.887Z,15.46
2023-05-20T22:23:08.303Z,15.34
2023-05-20T22:26:26.250Z,14.93
2023-05-20T22:29:43.925Z,14.96
2023-05-20T22:33:01.691Z,15.02
2023-05-20T22:36:19.242Z,15.11
2023-05-20T22:39:37.499Z,15.08
2023-05-20T22:42:54.648Z,15.16
2023-05-20T22:46:11.408Z,15.23
2023-05-20T22:49:29.538Z,15.23
2023-05-20T22:52:46.178Z,15.21
2023-05-20T22:56:03.311Z,15.22
2023-05-20T22:59:20.072Z,15.17
2023-05-20T23:02:36.950Z,15.19
2023-05-20T23:05:53.958Z,15.11
2023-05-20T23:09:10.826Z,15.00
2023-05-20T23:12:28.870Z,14.91
2023-05-20T23:15:47.419Z,14.95
2023-05-20T23:19:04.227Z,14.94
2023-05-20T23:22:21.523Z,14.98
2023-05-20T23:25:39.013Z,14.97
2023-05-20T23:28:56.539Z,14.98
2023-05-20T23:32:14.138Z,14.91
2023-05-20T23:35:30.923Z,14.86
2023-05-20T23:38:48.046Z,14.89
2023-05-20T23:42:04.753Z,14.87
2023-05-20T23:45:22.568Z,14.80
2023-05-20T23:48:39.442Z,14.84
2023-05-20T23:51:57.140Z,14.82
2023-05-20T23:55:15.773Z,14.81
2023-05-20T23:58:32.682Z,14.82
